Terminal Aerodrome Forecast
Issued by NWS

Home | Current Version | Previous Version | Text Only | Print | Product List | Glossary On
Versions: 1 2 3 4 5 6 7 8 9 10 11 12 13 14 15 16 17 18 19 20 21 22 23 24 25 26 27 28 29 30 31 32 33 34 35 36 37 38 39 40 41 42 43 44 45 46 47 48 49 50
000
FTUS45 KBOU 270656 AAB
TAFAPA
TAF AMD
KAPA 270656Z 2707/2806 19004KT P6SM VCSH FEW025 SCT040 BKN070
      TEMPO 2707/2708 5SM -SN BR BKN040
     FM270800 20006KT P6SM SCT025 BKN045 BKN080
     FM271000 21005KT P6SM FEW040 SCT080
     FM271400 VRB05KT P6SM FEW200
     FM271900 16006KT P6SM FEW200=

USA.gov is the U.S. government's official web portal to all federal, state and local government web resources and services.